createdAt,value
2023-03-10T00:01:22.224Z,5.10
2023-03-10T00:03:52.743Z,4.73
2023-03-10T00:06:22.783Z,5.10
2023-03-10T00:08:51.470Z,4.90
2023-03-10T00:11:20.357Z,4.57
2023-03-10T00:13:49.122Z,4.80
2023-03-10T00:16:20.085Z,4.97
2023-03-10T00:18:49.677Z,4.73
2023-03-10T00:21:21.307Z,5.10
2023-03-10T00:23:49.731Z,5.27
2023-03-10T00:26:19.565Z,5.07
2023-03-10T00:28:48.422Z,5.60
2023-03-10T00:31:19.217Z,5.47
2023-03-10T00:33:47.834Z,5.67
2023-03-10T00:36:19.553Z,5.33
2023-03-10T00:38:50.388Z,5.37
2023-03-10T00:41:21.391Z,5.83
2023-03-10T00:43:50.356Z,5.53
2023-03-10T00:46:19.565Z,5.63
2023-03-10T00:48:48.390Z,5.63
2023-03-10T00:51:19.017Z,4.83
2023-03-10T00:53:48.127Z,4.30
2023-03-10T00:56:18.797Z,4.70
2023-03-10T00:58:49.177Z,4.67
2023-03-10T01:01:19.780Z,4.77
2023-03-10T01:03:48.434Z,4.67
2023-03-10T01:06:18.115Z,5.17
2023-03-10T01:08:47.301Z,5.07
2023-03-10T01:11:16.336Z,5.00
2023-03-10T01:13:44.922Z,4.80
2023-03-10T01:16:13.424Z,4.40
2023-03-10T01:18:43.317Z,4.40
2023-03-10T01:21:19.526Z,4.13
2023-03-10T01:23:47.956Z,3.73
2023-03-10T01:26:19.049Z,3.90
2023-03-10T01:28:49.327Z,3.40
2023-03-10T01:31:18.695Z,4.10
2023-03-10T01:33:47.650Z,3.73
2023-03-10T01:36:19.869Z,3.53
2023-03-10T01:38:49.247Z,3.87
2023-03-10T01:41:18.638Z,4.13
2023-03-10T01:43:48.274Z,3.40
2023-03-10T01:46:42.545Z,3.87
2023-03-10T01:49:37.432Z,3.70
2023-03-10T01:52:12.063Z,3.87
2023-03-10T01:54:46.916Z,3.33
2023-03-10T01:57:17.466Z,3.40
2023-03-10T01:59:46.506Z,3.50
2023-03-10T02:02:17.420Z,3.33
2023-03-10T02:04:48.696Z,3.30
2023-03-10T02:07:27.810Z,2.60
2023-03-10T02:09:58.021Z,2.93
2023-03-10T02:12:26.642Z,2.90
2023-03-10T02:14:55.713Z,2.60
2023-03-10T02:17:26.735Z,2.77
2023-03-10T02:20:30.424Z,3.00
2023-03-10T02:23:01.631Z,2.90
2023-03-10T02:25:39.980Z,3.03
2023-03-10T02:28:10.629Z,2.90
2023-03-10T02:30:41.298Z,2.30
2023-03-10T02:33:14.986Z,2.10
2023-03-10T02:35:45.596Z,2.50
2023-03-10T02:38:17.475Z,2.93
2023-03-10T02:40:48.380Z,2.50
2023-03-10T02:43:25.972Z,2.50
2023-03-10T02:46:02.991Z,2.50
2023-03-10T02:48:35.603Z,2.60
2023-03-10T02:51:10.636Z,2.37
2023-03-10T02:53:39.520Z,2.53
2023-03-10T02:56:08.369Z,2.33
2023-03-10T02:58:40.578Z,2.43
2023-03-10T03:01:11.132Z,2.33
2023-03-10T03:03:42.841Z,2.47
2023-03-10T03:06:12.539Z,2.60
2023-03-10T03:08:41.409Z,2.23
2023-03-10T03:11:12.820Z,2.57
2023-03-10T03:13:42.746Z,2.77
2023-03-10T03:16:13.654Z,2.83
2023-03-10T03:18:43.634Z,2.20
2023-03-10T03:21:17.606Z,2.20
2023-03-10T03:23:48.752Z,2.20
2023-03-10T03:26:21.718Z,2.40
2023-03-10T03:28:53.642Z,2.30
2023-03-10T03:31:27.439Z,2.30
2023-03-10T03:34:12.575Z,2.03
2023-03-10T03:36:41.877Z,2.57
2023-03-10T03:39:17.369Z,2.53
2023-03-10T03:41:53.334Z,2.10
2023-03-10T03:44:23.569Z,2.40
2023-03-10T03:46:53.305Z,2.23
2023-03-10T03:49:22.930Z,2.40
2023-03-10T03:51:51.439Z,2.57
2023-03-10T03:54:20.584Z,2.60
2023-03-10T03:56:48.973Z,2.30
2023-03-10T03:59:18.034Z,2.00
2023-03-10T04:01:47.720Z,2.53
2023-03-10T04:04:16.065Z,2.10
2023-03-10T04:06:47.085Z,2.40
2023-03-10T04:09:18.267Z,2.60
2023-03-10T04:11:46.672Z,2.17
2023-03-10T04:14:15.094Z,2.53
2023-03-10T04:16:44.596Z,2.10
2023-03-10T04:19:14.926Z,1.93
2023-03-10T04:21:46.880Z,2.00
2023-03-10T04:24:16.186Z,1.90
2023-03-10T04:26:44.795Z,2.23
2023-03-10T04:29:13.732Z,1.97
2023-03-10T04:31:48.309Z,2.07
2023-03-10T04:34:21.016Z,2.37
2023-03-10T04:36:49.456Z,2.50
2023-03-10T04:39:17.914Z,2.40
2023-03-10T04:41:46.278Z,2.67
2023-03-10T04:44:29.821Z,2.30
2023-03-10T04:47:00.579Z,2.10
2023-03-10T04:49:30.863Z,2.20
2023-03-10T04:52:00.115Z,2.23
2023-03-10T04:54:29.724Z,2.30
2023-03-10T04:56:58.406Z,2.13
2023-03-10T04:59:27.164Z,1.97
2023-03-10T05:01:55.728Z,2.57
2023-03-10T05:04:24.716Z,2.50
2023-03-10T05:06:56.642Z,2.37
2023-03-10T05:09:29.485Z,2.63
2023-03-10T05:11:58.573Z,2.53
2023-03-10T05:14:30.934Z,2.43
2023-03-10T05:16:59.728Z,2.17
2023-03-10T05:19:28.856Z,2.30
2023-03-10T05:22:00.913Z,2.10
2023-03-10T05:24:29.466Z,1.80
2023-03-10T05:26:58.034Z,1.80
2023-03-10T05:29:26.763Z,1.80
2023-03-10T05:32:00.383Z,1.90
2023-03-10T05:34:34.448Z,1.87
2023-03-10T05:37:06.332Z,1.97
2023-03-10T05:39:35.746Z,1.90
2023-03-10T05:42:09.476Z,2.27
2023-03-10T05:44:38.581Z,1.80
2023-03-10T05:47:08.654Z,1.90
2023-03-10T05:49:38.858Z,2.30
2023-03-10T05:52:10.546Z,2.20
2023-03-10T05:54:40.707Z,2.30
2023-03-10T05:57:12.148Z,2.20
2023-03-10T05:59:43.108Z,2.47
2023-03-10T06:02:11.841Z,2.80
2023-03-10T06:04:40.291Z,2.80
2023-03-10T06:07:10.083Z,2.80
2023-03-10T06:09:38.469Z,2.70
2023-03-10T06:12:07.370Z,2.77
2023-03-10T06:14:35.755Z,2.77
2023-03-10T06:17:04.060Z,2.70
2023-03-10T06:19:32.504Z,3.10
2023-03-10T06:22:00.940Z,2.87
2023-03-10T06:24:31.037Z,3.67
2023-03-10T06:26:59.351Z,4.27
2023-03-10T06:29:27.816Z,4.07
2023-03-10T06:31:56.218Z,3.27
2023-03-10T06:34:24.585Z,3.20
2023-03-10T06:36:52.918Z,3.60
2023-03-10T06:39:22.051Z,3.37
2023-03-10T06:41:51.789Z,3.50
2023-03-10T06:44:20.792Z,3.40
2023-03-10T06:46:49.165Z,3.40
2023-03-10T06:49:17.618Z,3.57
2023-03-10T06:51:46.001Z,3.63
2023-03-10T06:54:14.413Z,3.33
2023-03-10T06:56:42.732Z,3.50
2023-03-10T06:59:12.479Z,3.40
2023-03-10T07:01:40.994Z,3.83
2023-03-10T07:04:09.508Z,4.00
2023-03-10T07:06:38.026Z,3.83
2023-03-10T07:09:06.922Z,5.10
2023-03-10T07:11:35.264Z,3.53
2023-03-10T07:14:03.738Z,3.07
2023-03-10T07:16:33.471Z,3.60
2023-03-10T07:19:01.927Z,3.20
2023-03-10T07:21:30.296Z,3.93
2023-03-10T07:24:00.080Z,3.50
2023-03-10T07:26:28.593Z,3.50
2023-03-10T07:28:59.173Z,4.40
2023-03-10T07:31:27.588Z,3.33
2023-03-10T07:33:57.582Z,3.40
2023-03-10T07:36:26.366Z,3.50
2023-03-10T07:38:54.867Z,3.30
2023-03-10T07:41:23.850Z,2.67
2023-03-10T07:43:54.754Z,3.20
2023-03-10T07:46:24.046Z,3.37
2023-03-10T07:48:53.002Z,3.50
2023-03-10T07:51:23.020Z,3.77
2023-03-10T07:53:51.341Z,5.20
2023-03-10T07:56:19.646Z,6.57
2023-03-10T07:58:48.058Z,6.00
2023-03-10T08:01:18.296Z,3.20
2023-03-10T08:03:47.528Z,2.17
2023-03-10T08:06:20.401Z,2.47
2023-03-10T08:08:50.577Z,2.17
2023-03-10T08:11:19.672Z,2.50
2023-03-10T08:13:48.392Z,1.73
2023-03-10T08:16:17.455Z,1.83
2023-03-10T08:18:46.269Z,2.07
2023-03-10T08:21:14.710Z,2.50
2023-03-10T08:23:43.164Z,2.30
2023-03-10T08:26:15.688Z,2.23
2023-03-10T08:28:45.797Z,2.20
2023-03-10T08:31:16.647Z,2.83
2023-03-10T08:33:45.669Z,2.60
2023-03-10T08:36:16.878Z,2.70
2023-03-10T08:38:45.849Z,3.07
2023-03-10T08:41:18.241Z,3.10
2023-03-10T08:43:49.120Z,3.17
2023-03-10T08:46:19.079Z,2.50
2023-03-10T08:48:48.195Z,2.67
2023-03-10T08:51:16.955Z,3.60
2023-03-10T08:53:47.194Z,2.40
2023-03-10T08:56:18.513Z,2.93
2023-03-10T08:58:46.961Z,2.73
2023-03-10T09:01:17.029Z,4.90
2023-03-10T09:03:46.710Z,3.23
2023-03-10T09:06:15.589Z,3.13
2023-03-10T09:08:44.443Z,3.30
2023-03-10T09:11:19.439Z,2.70
2023-03-10T09:13:48.298Z,3.17
2023-03-10T09:16:16.858Z,2.70
2023-03-10T09:18:45.567Z,3.20
2023-03-10T09:21:16.100Z,4.20
2023-03-10T09:23:46.463Z,5.27
2023-03-10T09:26:15.447Z,5.47
2023-03-10T09:28:45.182Z,4.83
2023-03-10T09:31:18.258Z,4.77
2023-03-10T09:33:48.387Z,4.87
2023-03-10T09:36:17.369Z,3.80
2023-03-10T09:38:46.056Z,2.83
2023-03-10T09:41:49.014Z,3.03
2023-03-10T09:44:26.769Z,2.90
2023-03-10T09:47:08.022Z,3.00
2023-03-10T09:49:39.189Z,2.13
2023-03-10T09:52:23.363Z,2.27
2023-03-10T09:54:59.924Z,2.43
2023-03-10T09:57:31.600Z,2.23
2023-03-10T10:00:05.744Z,2.50
2023-03-10T10:02:37.590Z,2.60
2023-03-10T10:05:16.836Z,2.90
2023-03-10T10:07:50.994Z,2.43
2023-03-10T10:10:24.674Z,3.37
2023-03-10T10:12:55.260Z,2.40
2023-03-10T10:15:27.962Z,2.50
2023-03-10T10:18:17.947Z,2.37
2023-03-10T10:20:50.832Z,3.20
2023-03-10T10:23:25.997Z,3.10
2023-03-10T10:25:54.855Z,3.20
2023-03-10T10:28:27.855Z,2.80
2023-03-10T10:31:12.240Z,2.60
2023-03-10T10:33:56.785Z,3.13
2023-03-10T10:36:27.124Z,6.23
2023-03-10T10:38:57.672Z,4.00
2023-03-10T10:41:29.041Z,3.00
2023-03-10T10:44:00.037Z,4.53
2023-03-10T10:46:30.968Z,3.80
2023-03-10T10:49:05.450Z,2.97
2023-03-10T10:51:36.187Z,3.60
2023-03-10T10:54:17.913Z,3.33
2023-03-10T10:56:53.518Z,4.97
2023-03-10T10:59:23.904Z,3.73
2023-03-10T11:01:55.851Z,4.50
2023-03-10T11:04:25.756Z,5.07
2023-03-10T11:06:54.835Z,3.77
2023-03-10T11:09:24.367Z,2.37
2023-03-10T11:12:01.634Z,2.83
2023-03-10T11:14:42.160Z,2.67
2023-03-10T11:17:18.966Z,3.13
2023-03-10T11:20:04.302Z,3.03
2023-03-10T11:22:40.900Z,2.77
2023-03-10T11:25:28.428Z,3.03
2023-03-10T11:28:13.240Z,3.27
2023-03-10T11:30:50.342Z,2.63
2023-03-10T11:33:25.854Z,2.50
2023-03-10T11:36:00.567Z,3.23
2023-03-10T11:38:37.642Z,3.30
2023-03-10T11:41:09.499Z,2.57
2023-03-10T11:43:51.154Z,3.33
2023-03-10T11:46:25.567Z,2.10
2023-03-10T11:49:07.351Z,2.60
2023-03-10T11:51:40.757Z,3.33
2023-03-10T11:54:16.236Z,2.77
2023-03-10T11:56:45.816Z,2.23
2023-03-10T11:59:18.489Z,2.73
2023-03-10T12:01:52.360Z,2.67
2023-03-10T12:04:25.069Z,2.10
2023-03-10T12:07:00.122Z,3.03
2023-03-10T12:09:38.067Z,2.50
2023-03-10T12:12:07.847Z,2.60
2023-03-10T12:14:37.372Z,2.40
2023-03-10T12:17:06.644Z,2.60
2023-03-10T12:20:12.176Z,2.30
2023-03-10T12:22:42.900Z,2.37
2023-03-10T12:25:43.753Z,2.67
2023-03-10T12:28:24.423Z,3.20
2023-03-10T12:30:57.440Z,2.60
2023-03-10T12:33:45.954Z,3.07
2023-03-10T12:36:20.093Z,3.13
2023-03-10T12:38:51.390Z,2.90
2023-03-10T12:41:48.589Z,2.63
2023-03-10T12:44:41.620Z,2.90
2023-03-10T12:47:19.760Z,3.00
2023-03-10T12:49:52.152Z,2.67
2023-03-10T12:52:28.761Z,2.50
2023-03-10T12:55:18.987Z,3.20
2023-03-10T12:57:58.500Z,2.57
2023-03-10T13:00:34.146Z,2.43
2023-03-10T13:03:05.685Z,2.93
2023-03-10T13:05:36.766Z,2.77
2023-03-10T13:08:17.607Z,2.60
2023-03-10T13:10:47.148Z,2.47
2023-03-10T13:13:17.787Z,2.93
2023-03-10T13:15:59.029Z,2.93
2023-03-10T13:18:27.396Z,2.70
2023-03-10T13:20:55.709Z,2.47
2023-03-10T13:23:27.827Z,2.70
2023-03-10T13:25:59.654Z,2.60
2023-03-10T13:28:30.386Z,2.67
2023-03-10T13:31:19.318Z,2.43
2023-03-10T13:33:53.699Z,2.57
2023-03-10T13:36:32.309Z,2.97
2023-03-10T13:39:03.742Z,2.80
2023-03-10T13:41:37.467Z,2.47
2023-03-10T13:44:06.202Z,3.10
2023-03-10T13:46:35.527Z,2.80
2023-03-10T13:49:06.949Z,2.80
2023-03-10T13:51:37.330Z,2.40
2023-03-10T13:54:22.178Z,2.80
2023-03-10T13:56:52.649Z,2.87
2023-03-10T13:59:24.379Z,3.30
2023-03-10T14:01:56.263Z,3.00
2023-03-10T14:04:45.354Z,3.40
2023-03-10T14:07:18.414Z,3.73
2023-03-10T14:09:50.097Z,3.20
2023-03-10T14:12:37.050Z,3.30
2023-03-10T14:15:13.265Z,2.73
2023-03-10T14:17:42.736Z,2.77
2023-03-10T14:20:12.284Z,3.70
2023-03-10T14:22:43.416Z,3.30
2023-03-10T14:25:15.625Z,4.20
2023-03-10T14:27:45.860Z,3.30
2023-03-10T14:30:24.903Z,2.80
2023-03-10T14:32:53.864Z,3.03
2023-03-10T14:35:24.036Z,2.50
2023-03-10T14:37:53.031Z,2.90
2023-03-10T14:40:25.889Z,2.70
2023-03-10T14:42:58.921Z,2.87
2023-03-10T14:45:30.470Z,3.20
2023-03-10T14:48:00.635Z,3.40
2023-03-10T14:50:33.099Z,3.30
2023-03-10T14:53:01.500Z,2.90
2023-03-10T14:55:31.533Z,3.20
2023-03-10T14:58:03.199Z,3.93
2023-03-10T15:00:32.492Z,3.13
2023-03-10T15:03:00.792Z,3.80
2023-03-10T15:05:45.428Z,3.27
2023-03-10T15:08:15.658Z,3.63
2023-03-10T15:10:48.648Z,3.83
2023-03-10T15:13:18.628Z,6.50
2023-03-10T15:15:48.627Z,4.10
2023-03-10T15:18:18.890Z,4.73
2023-03-10T15:20:47.375Z,4.43
2023-03-10T15:23:19.468Z,4.40
2023-03-10T15:25:49.634Z,4.57
2023-03-10T15:28:17.961Z,4.27
2023-03-10T15:30:46.498Z,4.13
2023-03-10T15:33:14.826Z,4.30
2023-03-10T15:35:43.717Z,3.80
2023-03-10T15:38:14.890Z,4.37
2023-03-10T15:40:44.185Z,3.93
2023-03-10T15:43:14.303Z,4.47
2023-03-10T15:45:46.623Z,4.57
2023-03-10T15:48:15.017Z,3.90
2023-03-10T15:50:44.342Z,4.07
2023-03-10T15:53:12.717Z,3.63
2023-03-10T15:55:42.731Z,3.43
2023-03-10T15:58:12.005Z,3.70
2023-03-10T16:00:43.843Z,3.43
2023-03-10T16:03:12.454Z,3.10
2023-03-10T16:05:49.006Z,3.17
2023-03-10T16:08:19.310Z,3.27
2023-03-10T16:10:57.636Z,3.67
2023-03-10T16:13:26.094Z,3.17
2023-03-10T16:15:55.828Z,3.63
2023-03-10T16:18:24.212Z,3.10
2023-03-10T16:20:59.391Z,3.27
2023-03-10T16:23:29.710Z,3.23
2023-03-10T16:26:09.504Z,3.47
2023-03-10T16:28:39.079Z,3.47
2023-03-10T16:31:10.032Z,3.70
2023-03-10T16:33:38.570Z,4.33
2023-03-10T16:36:09.286Z,5.87
2023-03-10T16:38:37.661Z,5.57
2023-03-10T16:41:06.240Z,4.57
2023-03-10T16:43:35.106Z,4.30
2023-03-10T16:46:10.175Z,3.53
2023-03-10T16:48:42.098Z,7.27
2023-03-10T16:51:23.222Z,4.37
2023-03-10T16:53:53.564Z,4.33
2023-03-10T16:56:23.068Z,3.30
2023-03-10T16:58:52.270Z,4.17
2023-03-10T17:01:24.040Z,4.60
2023-03-10T17:03:52.877Z,4.30
2023-03-10T17:06:24.341Z,4.10
2023-03-10T17:08:53.531Z,3.83
2023-03-10T17:11:24.314Z,4.00
2023-03-10T17:13:54.808Z,3.17
2023-03-10T17:16:29.340Z,3.73
2023-03-10T17:19:00.248Z,3.30
2023-03-10T17:21:31.748Z,3.40
2023-03-10T17:24:01.086Z,3.70
2023-03-10T17:26:29.914Z,3.97
2023-03-10T17:28:58.410Z,3.27
2023-03-10T17:31:30.719Z,3.23
2023-03-10T17:34:00.980Z,3.43
2023-03-10T17:36:29.804Z,3.27
2023-03-10T17:39:00.027Z,3.40
2023-03-10T17:41:29.439Z,3.50
2023-03-10T17:43:58.088Z,3.03
2023-03-10T17:46:30.635Z,3.37
2023-03-10T17:49:00.239Z,3.47
2023-03-10T17:51:30.861Z,3.03
2023-03-10T17:54:00.965Z,3.60
2023-03-10T17:56:30.039Z,3.60
2023-03-10T17:58:59.003Z,3.80
2023-03-10T18:01:30.706Z,3.50
2023-03-10T18:04:00.997Z,3.70
2023-03-10T18:06:31.005Z,3.73
2023-03-10T18:09:00.453Z,3.30
2023-03-10T18:11:30.197Z,3.13
2023-03-10T18:13:59.710Z,3.10
2023-03-10T18:16:32.727Z,3.87
2023-03-10T18:19:01.402Z,4.23
2023-03-10T18:21:30.106Z,3.63
2023-03-10T18:23:58.658Z,3.10
2023-03-10T18:26:30.452Z,2.50
2023-03-10T18:28:59.500Z,2.60
2023-03-10T18:31:30.038Z,3.00
2023-03-10T18:34:00.440Z,3.23
2023-03-10T18:36:29.662Z,3.23
2023-03-10T18:38:58.615Z,3.23
2023-03-10T18:41:30.479Z,2.70
2023-03-10T18:44:00.032Z,2.97
2023-03-10T18:46:28.555Z,3.47
2023-03-10T18:48:57.048Z,3.70
2023-03-10T18:51:29.076Z,4.00
2023-03-10T18:53:57.894Z,3.60
2023-03-10T18:56:29.264Z,4.50
2023-03-10T18:58:58.206Z,4.00
2023-03-10T19:01:27.013Z,4.20
2023-03-10T19:03:55.572Z,4.27
2023-03-10T19:06:24.092Z,3.47
2023-03-10T19:08:53.856Z,3.23
2023-03-10T19:11:24.362Z,2.70
2023-03-10T19:13:53.116Z,2.07
2023-03-10T19:16:22.488Z,7.20
2023-03-10T19:18:50.851Z,2.20
2023-03-10T19:21:21.351Z,3.77
2023-03-10T19:23:50.964Z,3.03
2023-03-10T19:26:20.780Z,3.13
2023-03-10T19:28:49.056Z,2.67
2023-03-10T19:31:18.056Z,3.23
2023-03-10T19:33:47.340Z,2.40
2023-03-10T19:36:16.538Z,2.83
2023-03-10T19:38:45.954Z,2.90
2023-03-10T19:41:16.414Z,3.13
2023-03-10T19:43:47.334Z,3.60
2023-03-10T19:46:16.302Z,3.53
2023-03-10T19:48:45.587Z,3.30
2023-03-10T19:51:21.928Z,3.60
2023-03-10T19:53:52.540Z,4.57
2023-03-10T19:56:21.915Z,3.73
2023-03-10T19:58:51.867Z,4.10
2023-03-10T20:01:24.356Z,4.47
2023-03-10T20:03:53.715Z,4.03
2023-03-10T20:06:22.325Z,4.17
2023-03-10T20:08:51.582Z,4.70
2023-03-10T20:11:19.938Z,4.03
2023-03-10T20:13:48.419Z,4.40
2023-03-10T20:16:20.248Z,3.90
2023-03-10T20:18:49.120Z,4.27
2023-03-10T20:21:17.762Z,4.97
2023-03-10T20:23:47.824Z,4.30
2023-03-10T20:26:17.102Z,4.57
2023-03-10T20:28:45.966Z,4.53
2023-03-10T20:31:18.953Z,4.63
2023-03-10T20:33:49.533Z,4.47
2023-03-10T20:36:17.877Z,4.47
2023-03-10T20:38:47.094Z,4.80
2023-03-10T20:41:17.620Z,4.50
2023-03-10T20:43:46.191Z,5.10
2023-03-10T20:46:15.223Z,5.37
2023-03-10T20:48:45.032Z,5.80
2023-03-10T20:51:15.076Z,5.27
2023-03-10T20:53:43.720Z,5.57
2023-03-10T20:56:14.360Z,5.57
2023-03-10T20:58:42.708Z,6.00
2023-03-10T21:01:16.806Z,5.27
2023-03-10T21:03:47.876Z,6.00
2023-03-10T21:06:16.314Z,5.47
2023-03-10T21:08:44.638Z,5.13
2023-03-10T21:11:13.002Z,5.03
2023-03-10T21:13:41.976Z,5.30
2023-03-10T21:16:10.819Z,4.80
2023-03-10T21:18:39.317Z,3.97
2023-03-10T21:21:10.511Z,4.40
2023-03-10T21:23:45.114Z,5.10
2023-03-10T21:26:16.575Z,4.63
2023-03-10T21:28:44.949Z,4.70
2023-03-10T21:31:14.108Z,4.27
2023-03-10T21:33:42.852Z,4.67
2023-03-10T21:36:16.401Z,4.20
2023-03-10T21:38:48.769Z,4.33
2023-03-10T21:41:19.100Z,4.43
2023-03-10T21:43:48.072Z,4.20
2023-03-10T21:46:16.441Z,4.53
2023-03-10T21:48:45.343Z,3.87
2023-03-10T21:51:17.530Z,3.47
2023-03-10T21:53:46.622Z,3.67
2023-03-10T21:56:17.702Z,3.60
2023-03-10T21:58:46.583Z,3.03
2023-03-10T22:01:16.409Z,3.77
2023-03-10T22:03:45.872Z,3.50
2023-03-10T22:06:15.688Z,3.50
2023-03-10T22:08:44.097Z,3.07
2023-03-10T22:11:14.276Z,3.50
2023-03-10T22:13:43.064Z,3.63
2023-03-10T22:16:17.312Z,3.63
2023-03-10T22:18:46.299Z,4.13
2023-03-10T22:21:16.010Z,1.90
2023-03-10T22:23:44.865Z,1.57
2023-03-10T22:26:13.909Z,1.60
2023-03-10T22:28:42.361Z,1.70
2023-03-10T22:31:11.136Z,1.80
2023-03-10T22:33:39.613Z,1.33
2023-03-10T22:36:10.127Z,1.30
2023-03-10T22:38:40.000Z,1.53
2023-03-10T22:41:11.354Z,1.47
2023-03-10T22:43:40.738Z,1.80
2023-03-10T22:46:11.476Z,1.40
2023-03-10T22:48:40.052Z,1.50
2023-03-10T22:51:09.582Z,2.97
2023-03-10T22:53:40.216Z,1.57
2023-03-10T22:56:08.833Z,1.53
2023-03-10T23:02:59.733Z,1.40
2023-03-10T23:05:28.688Z,1.30
2023-03-10T23:07:57.405Z,1.37
2023-03-10T23:10:29.147Z,1.40
2023-03-10T23:13:00.259Z,1.20
2023-03-10T23:15:30.837Z,1.07
2023-03-10T23:17:59.537Z,1.50
2023-03-10T23:20:30.371Z,1.50
2023-03-10T23:23:00.467Z,1.30
2023-03-10T23:25:32.361Z,1.30
2023-03-10T23:28:02.119Z,1.50
2023-03-10T23:30:30.855Z,1.93
2023-03-10T23:32:59.540Z,1.13
2023-03-10T23:35:30.748Z,1.37
2023-03-10T23:38:00.333Z,1.60
2023-03-10T23:40:31.732Z,1.43
2023-03-10T23:43:01.673Z,1.20
2023-03-10T23:45:32.513Z,1.00
2023-03-10T23:48:02.608Z,1.20
2023-03-10T23:50:33.608Z,0.97
2023-03-10T23:53:02.148Z,0.87
2023-03-10T23:55:34.694Z,1.00
2023-03-10T23:58:03.366Z,0.90
